Grider Field
KPBF : now visible

Airfield :











YOU CAN JOIN US ON...

 
LOGIN :

Register | Disclaimer

   EN    FR    IT 

 









Legend :    VFR   Marginal VFR   IFR   Intensive IFR   Very Intensive IFR
Visi :
Ceiling :
>= 8 km
>= 3000ft
5 to 8 km
1000 to 3000 ft
1500m to 5 km
500 to 1000 ft
800 to 1500m
200 to 500 ft
< 800m
< 200 ft
Symbols :   Thunderstorms  Fog  Heavy snow  Heavy precipitations  Wind > 20 kt






- Airport Elevation : 206 ft


KPBF - Grider Field

CURRENT METAR :
  • 242153Z AUTO 29013KT 10SM BKN035 07/M01 A3005 RMK AO2 SLP177 T00721006

EXPIRED METARs :
  • 242053Z AUTO 30012G20KT 10SM OVC036 07/M01 A3004 RMK AO2 SLP172 T00721006 53001
  • 241953Z AUTO 27011KT 10SM OVC033 07/00 A3004 RMK AO2 SLP171 T00720000

TAF KPBF
Valid from the 24 at 21:00 until the 25 at 18:00 UTC


242100Z 2421/2518 30013G19KT P6SM BKN035
FM250000 29005KT P6SM BKN050
FM251200 29007KT P6SM BKN250



MET'MAP, your aeronautical weather chart ! - Copyright ORBIFLY December 2007 - Disclaimer

ORBIFLY MET'MAP TEAM :

Programming & Development : Alexandra Zaïnal
Concept & original design : Baudouin d'Aumeries
Assistance for programming : Marc-Olivier Méhu
Technical & hardware support : Manuel Goepfert

Contact : metmap@orbifly.com




SOURCES & CREDITS :

   NOAA       Earth
Advisory